sensor_id;sensor_type;location;lat;lon;timestamp;P1;durP1;ratioP1;P2;durP2;ratioP2
76814;SDS011;65768;49.906;19.384;2023-11-19T00:00:44;39.40;;;16.80;;
76814;SDS011;65768;49.906;19.384;2023-11-19T00:03:52;37.40;;;17.40;;
76814;SDS011;65768;49.906;19.384;2023-11-19T00:06:21;27.50;;;14.00;;
76814;SDS011;65768;49.906;19.384;2023-11-19T00:08:50;37.80;;;18.60;;
76814;SDS011;65768;49.906;19.384;2023-11-19T00:11:20;38.80;;;18.70;;
76814;SDS011;65768;49.906;19.384;2023-11-19T00:14:11;46.00;;;20.00;;
76814;SDS011;65768;49.906;19.384;2023-11-19T00:17:00;39.10;;;18.10;;
76814;SDS011;65768;49.906;19.384;2023-11-19T00:19:49;32.70;;;16.00;;
76814;SDS011;65768;49.906;19.384;2023-11-19T00:22:20;32.90;;;16.10;;
76814;SDS011;65768;49.906;19.384;2023-11-19T00:24:50;42.40;;;20.80;;
76814;SDS011;65768;49.906;19.384;2023-11-19T00:27:39;37.80;;;17.70;;
76814;SDS011;65768;49.906;19.384;2023-11-19T00:30:27;37.60;;;16.80;;
76814;SDS011;65768;49.906;19.384;2023-11-19T00:32:55;35.90;;;17.60;;
76814;SDS011;65768;49.906;19.384;2023-11-19T00:35:45;35.40;;;16.90;;
76814;SDS011;65768;49.906;19.384;2023-11-19T00:38:54;35.20;;;17.10;;
76814;SDS011;65768;49.906;19.384;2023-11-19T00:41:23;39.90;;;19.50;;
76814;SDS011;65768;49.906;19.384;2023-11-19T00:43:51;41.40;;;18.90;;
76814;SDS011;65768;49.906;19.384;2023-11-19T00:46:20;36.00;;;18.80;;
76814;SDS011;65768;49.906;19.384;2023-11-19T00:49:09;36.70;;;17.80;;
76814;SDS011;65768;49.906;19.384;2023-11-19T00:51:59;39.10;;;17.50;;
76814;SDS011;65768;49.906;19.384;2023-11-19T00:54:29;33.70;;;17.00;;
76814;SDS011;65768;49.906;19.384;2023-11-19T00:56:57;39.20;;;18.50;;
76814;SDS011;65768;49.906;19.384;2023-11-19T00:59:45;39.50;;;17.30;;
76814;SDS011;65768;49.906;19.384;2023-11-19T01:02:36;40.80;;;18.00;;
76814;SDS011;65768;49.906;19.384;2023-11-19T01:05:05;42.10;;;18.90;;
76814;SDS011;65768;49.906;19.384;2023-11-19T01:07:58;48.70;;;19.70;;
76814;SDS011;65768;49.906;19.384;2023-11-19T01:10:26;41.00;;;18.50;;
76814;SDS011;65768;49.906;19.384;2023-11-19T01:13:15;43.20;;;18.30;;
76814;SDS011;65768;49.906;19.384;2023-11-19T01:15:44;34.60;;;16.70;;
76814;SDS011;65768;49.906;19.384;2023-11-19T01:18:32;44.00;;;18.70;;
76814;SDS011;65768;49.906;19.384;2023-11-19T01:21:01;40.20;;;18.20;;
76814;SDS011;65768;49.906;19.384;2023-11-19T01:23:30;36.10;;;18.20;;
76814;SDS011;65768;49.906;19.384;2023-11-19T01:25:58;35.20;;;16.80;;
76814;SDS011;65768;49.906;19.384;2023-11-19T01:28:46;38.20;;;17.80;;
76814;SDS011;65768;49.906;19.384;2023-11-19T01:31:34;34.80;;;15.80;;
76814;SDS011;65768;49.906;19.384;2023-11-19T01:34:25;32.90;;;15.50;;
76814;SDS011;65768;49.906;19.384;2023-11-19T01:36:53;35.90;;;15.30;;
76814;SDS011;65768;49.906;19.384;2023-11-19T01:39:21;36.00;;;14.90;;
76814;SDS011;65768;49.906;19.384;2023-11-19T01:41:50;33.90;;;16.10;;
76814;SDS011;65768;49.906;19.384;2023-11-19T01:44:18;28.90;;;14.80;;
76814;SDS011;65768;49.906;19.384;2023-11-19T01:46:47;31.20;;;15.10;;
76814;SDS011;65768;49.906;19.384;2023-11-19T01:49:18;33.00;;;15.90;;
76814;SDS011;65768;49.906;19.384;2023-11-19T01:51:49;39.80;;;16.90;;
76814;SDS011;65768;49.906;19.384;2023-11-19T01:54:17;37.60;;;16.90;;
76814;SDS011;65768;49.906;19.384;2023-11-19T01:56:45;35.30;;;16.60;;
76814;SDS011;65768;49.906;19.384;2023-11-19T01:59:15;38.00;;;17.00;;
76814;SDS011;65768;49.906;19.384;2023-11-19T02:01:45;34.70;;;17.40;;
76814;SDS011;65768;49.906;19.384;2023-11-19T02:04:13;36.10;;;15.80;;
76814;SDS011;65768;49.906;19.384;2023-11-19T02:06:45;41.80;;;18.70;;
76814;SDS011;65768;49.906;19.384;2023-11-19T02:09:16;35.40;;;16.50;;
76814;SDS011;65768;49.906;19.384;2023-11-19T02:12:09;37.30;;;15.30;;
76814;SDS011;65768;49.906;19.384;2023-11-19T02:14:43;36.40;;;15.90;;
76814;SDS011;65768;49.906;19.384;2023-11-19T02:17:32;29.30;;;14.50;;
76814;SDS011;65768;49.906;19.384;2023-11-19T02:20:02;38.30;;;18.10;;
76814;SDS011;65768;49.906;19.384;2023-11-19T02:22:37;40.70;;;18.10;;
76814;SDS011;65768;49.906;19.384;2023-11-19T02:25:10;31.40;;;15.90;;
76814;SDS011;65768;49.906;19.384;2023-11-19T02:28:01;40.30;;;17.20;;
76814;SDS011;65768;49.906;19.384;2023-11-19T02:30:31;42.10;;;18.60;;
76814;SDS011;65768;49.906;19.384;2023-11-19T02:33:18;36.70;;;18.00;;
76814;SDS011;65768;49.906;19.384;2023-11-19T02:35:46;35.50;;;16.70;;
76814;SDS011;65768;49.906;19.384;2023-11-19T02:38:16;40.70;;;18.10;;
76814;SDS011;65768;49.906;19.384;2023-11-19T02:40:45;38.10;;;17.60;;
76814;SDS011;65768;49.906;19.384;2023-11-19T02:43:14;36.00;;;16.90;;
76814;SDS011;65768;49.906;19.384;2023-11-19T02:45:43;38.90;;;17.70;;
76814;SDS011;65768;49.906;19.384;2023-11-19T02:48:15;35.80;;;15.70;;
76814;SDS011;65768;49.906;19.384;2023-11-19T02:50:44;35.80;;;16.40;;
76814;SDS011;65768;49.906;19.384;2023-11-19T02:53:31;30.10;;;14.20;;
76814;SDS011;65768;49.906;19.384;2023-11-19T02:55:59;34.60;;;14.60;;
76814;SDS011;65768;49.906;19.384;2023-11-19T02:58:44;37.10;;;16.30;;
76814;SDS011;65768;49.906;19.384;2023-11-19T03:01:36;32.60;;;14.30;;
76814;SDS011;65768;49.906;19.384;2023-11-19T03:04:24;38.50;;;16.90;;
76814;SDS011;65768;49.906;19.384;2023-11-19T03:06:56;38.60;;;17.80;;
76814;SDS011;65768;49.906;19.384;2023-11-19T03:09:26;41.30;;;17.80;;
76814;SDS011;65768;49.906;19.384;2023-11-19T03:11:54;36.70;;;18.60;;
76814;SDS011;65768;49.906;19.384;2023-11-19T03:14:23;39.30;;;18.60;;
76814;SDS011;65768;49.906;19.384;2023-11-19T03:16:51;39.20;;;17.40;;
76814;SDS011;65768;49.906;19.384;2023-11-19T03:19:20;37.80;;;18.10;;
76814;SDS011;65768;49.906;19.384;2023-11-19T03:21:50;43.70;;;18.70;;
76814;SDS011;65768;49.906;19.384;2023-11-19T03:24:18;46.50;;;17.70;;
76814;SDS011;65768;49.906;19.384;2023-11-19T03:26:57;41.70;;;18.20;;
76814;SDS011;65768;49.906;19.384;2023-11-19T03:29:25;41.30;;;18.80;;
76814;SDS011;65768;49.906;19.384;2023-11-19T03:31:55;46.90;;;20.50;;
76814;SDS011;65768;49.906;19.384;2023-11-19T03:34:24;42.60;;;19.10;;
76814;SDS011;65768;49.906;19.384;2023-11-19T03:36:53;45.10;;;18.90;;
76814;SDS011;65768;49.906;19.384;2023-11-19T03:39:21;47.50;;;20.60;;
76814;SDS011;65768;49.906;19.384;2023-11-19T03:41:52;43.40;;;18.70;;
76814;SDS011;65768;49.906;19.384;2023-11-19T03:44:22;44.60;;;19.80;;
76814;SDS011;65768;49.906;19.384;2023-11-19T03:46:50;41.30;;;18.60;;
76814;SDS011;65768;49.906;19.384;2023-11-19T03:49:18;45.50;;;19.50;;
76814;SDS011;65768;49.906;19.384;2023-11-19T03:51:48;48.80;;;21.50;;
76814;SDS011;65768;49.906;19.384;2023-11-19T03:54:26;43.00;;;19.70;;
76814;SDS011;65768;49.906;19.384;2023-11-19T03:56:56;42.00;;;20.60;;
76814;SDS011;65768;49.906;19.384;2023-11-19T03:59:24;44.70;;;18.80;;
76814;SDS011;65768;49.906;19.384;2023-11-19T04:01:55;46.30;;;19.80;;
76814;SDS011;65768;49.906;19.384;2023-11-19T04:04:29;50.80;;;21.10;;
76814;SDS011;65768;49.906;19.384;2023-11-19T04:06:58;47.40;;;19.50;;
76814;SDS011;65768;49.906;19.384;2023-11-19T04:09:29;43.40;;;19.60;;
76814;SDS011;65768;49.906;19.384;2023-11-19T04:11:59;47.60;;;21.10;;
76814;SDS011;65768;49.906;19.384;2023-11-19T04:14:29;48.20;;;20.80;;
76814;SDS011;65768;49.906;19.384;2023-11-19T04:16:59;43.20;;;20.00;;
76814;SDS011;65768;49.906;19.384;2023-11-19T04:19:29;54.00;;;20.20;;
76814;SDS011;65768;49.906;19.384;2023-11-19T04:21:57;48.40;;;19.40;;
76814;SDS011;65768;49.906;19.384;2023-11-19T04:24:25;48.10;;;20.90;;
76814;SDS011;65768;49.906;19.384;2023-11-19T04:26:54;49.80;;;21.20;;
76814;SDS011;65768;49.906;19.384;2023-11-19T04:29:22;46.10;;;19.50;;
76814;SDS011;65768;49.906;19.384;2023-11-19T04:31:50;55.80;;;21.50;;
76814;SDS011;65768;49.906;19.384;2023-11-19T04:34:19;48.30;;;21.20;;
76814;SDS011;65768;49.906;19.384;2023-11-19T04:36:47;52.70;;;22.40;;
76814;SDS011;65768;49.906;19.384;2023-11-19T04:39:16;62.80;;;27.30;;
76814;SDS011;65768;49.906;19.384;2023-11-19T04:41:47;64.70;;;26.30;;
76814;SDS011;65768;49.906;19.384;2023-11-19T04:44:21;63.10;;;26.20;;
76814;SDS011;65768;49.906;19.384;2023-11-19T04:46:50;60.50;;;26.90;;
76814;SDS011;65768;49.906;19.384;2023-11-19T04:49:19;60.50;;;25.50;;
76814;SDS011;65768;49.906;19.384;2023-11-19T04:51:49;73.80;;;31.60;;
76814;SDS011;65768;49.906;19.384;2023-11-19T04:54:19;75.90;;;32.80;;
76814;SDS011;65768;49.906;19.384;2023-11-19T04:56:47;83.80;;;32.00;;
76814;SDS011;65768;49.906;19.384;2023-11-19T04:59:18;80.30;;;33.40;;
76814;SDS011;65768;49.906;19.384;2023-11-19T05:01:47;82.00;;;34.90;;
76814;SDS011;65768;49.906;19.384;2023-11-19T05:04:16;67.80;;;30.60;;
76814;SDS011;65768;49.906;19.384;2023-11-19T05:06:47;64.10;;;27.70;;
76814;SDS011;65768;49.906;19.384;2023-11-19T05:09:16;60.00;;;26.30;;
76814;SDS011;65768;49.906;19.384;2023-11-19T05:11:45;62.50;;;26.50;;
76814;SDS011;65768;49.906;19.384;2023-11-19T05:14:13;59.40;;;26.00;;
76814;SDS011;65768;49.906;19.384;2023-11-19T05:16:42;60.40;;;25.00;;
76814;SDS011;65768;49.906;19.384;2023-11-19T05:19:13;53.20;;;24.60;;
76814;SDS011;65768;49.906;19.384;2023-11-19T05:21:43;54.50;;;25.00;;
76814;SDS011;65768;49.906;19.384;2023-11-19T05:24:12;59.70;;;25.30;;
76814;SDS011;65768;49.906;19.384;2023-11-19T05:26:42;49.20;;;22.20;;
76814;SDS011;65768;49.906;19.384;2023-11-19T05:29:11;52.40;;;23.90;;
76814;SDS011;65768;49.906;19.384;2023-11-19T05:31:39;53.00;;;23.70;;
76814;SDS011;65768;49.906;19.384;2023-11-19T05:34:08;56.90;;;25.70;;
76814;SDS011;65768;49.906;19.384;2023-11-19T05:36:36;64.40;;;29.10;;
76814;SDS011;65768;49.906;19.384;2023-11-19T05:39:05;60.60;;;27.90;;
76814;SDS011;65768;49.906;19.384;2023-11-19T05:41:33;50.90;;;23.60;;
76814;SDS011;65768;49.906;19.384;2023-11-19T05:44:02;52.80;;;23.80;;
76814;SDS011;65768;49.906;19.384;2023-11-19T05:46:30;45.50;;;21.00;;
76814;SDS011;65768;49.906;19.384;2023-11-19T05:48:59;50.80;;;21.20;;
76814;SDS011;65768;49.906;19.384;2023-11-19T05:51:27;44.10;;;20.10;;
76814;SDS011;65768;49.906;19.384;2023-11-19T05:53:55;43.10;;;19.10;;
76814;SDS011;65768;49.906;19.384;2023-11-19T05:56:26;41.10;;;16.60;;
76814;SDS011;65768;49.906;19.384;2023-11-19T05:59:00;37.70;;;18.50;;
76814;SDS011;65768;49.906;19.384;2023-11-19T06:01:29;36.60;;;18.30;;
76814;SDS011;65768;49.906;19.384;2023-11-19T06:03:58;40.70;;;16.70;;
76814;SDS011;65768;49.906;19.384;2023-11-19T06:06:28;42.40;;;17.40;;
76814;SDS011;65768;49.906;19.384;2023-11-19T06:08:57;43.60;;;18.80;;
76814;SDS011;65768;49.906;19.384;2023-11-19T06:11:26;49.90;;;20.60;;
76814;SDS011;65768;49.906;19.384;2023-11-19T06:13:55;41.70;;;19.70;;
76814;SDS011;65768;49.906;19.384;2023-11-19T06:16:24;46.80;;;20.70;;
76814;SDS011;65768;49.906;19.384;2023-11-19T06:18:52;53.00;;;22.20;;
76814;SDS011;65768;49.906;19.384;2023-11-19T06:21:21;47.50;;;19.50;;
76814;SDS011;65768;49.906;19.384;2023-11-19T06:23:50;39.60;;;17.50;;
76814;SDS011;65768;49.906;19.384;2023-11-19T06:26:20;47.40;;;20.00;;
76814;SDS011;65768;49.906;19.384;2023-11-19T06:28:50;48.00;;;19.40;;
76814;SDS011;65768;49.906;19.384;2023-11-19T06:31:18;44.70;;;19.40;;
76814;SDS011;65768;49.906;19.384;2023-11-19T06:33:47;44.90;;;19.90;;
76814;SDS011;65768;49.906;19.384;2023-11-19T06:36:15;47.80;;;19.00;;
76814;SDS011;65768;49.906;19.384;2023-11-19T06:38:47;48.40;;;21.30;;
76814;SDS011;65768;49.906;19.384;2023-11-19T06:41:15;43.00;;;20.10;;
76814;SDS011;65768;49.906;19.384;2023-11-19T06:43:44;39.50;;;18.00;;
76814;SDS011;65768;49.906;19.384;2023-11-19T06:46:16;38.50;;;17.10;;
76814;SDS011;65768;49.906;19.384;2023-11-19T06:48:46;38.10;;;16.10;;
76814;SDS011;65768;49.906;19.384;2023-11-19T06:51:14;33.10;;;16.40;;
76814;SDS011;65768;49.906;19.384;2023-11-19T06:53:44;27.60;;;12.10;;
76814;SDS011;65768;49.906;19.384;2023-11-19T06:56:17;32.40;;;13.30;;
76814;SDS011;65768;49.906;19.384;2023-11-19T06:58:57;26.30;;;12.80;;
76814;SDS011;65768;49.906;19.384;2023-11-19T07:03:13;27.30;;;10.90;;
76814;SDS011;65768;49.906;19.384;2023-11-19T07:06:08;21.30;;;10.80;;
76814;SDS011;65768;49.906;19.384;2023-11-19T07:08:47;22.00;;;10.60;;
76814;SDS011;65768;49.906;19.384;2023-11-19T07:11:21;27.90;;;12.30;;
76814;SDS011;65768;49.906;19.384;2023-11-19T07:14:00;29.70;;;13.30;;
76814;SDS011;65768;49.906;19.384;2023-11-19T07:16:38;32.20;;;13.50;;
76814;SDS011;65768;49.906;19.384;2023-11-19T07:19:59;39.90;;;17.70;;
76814;SDS011;65768;49.906;19.384;2023-11-19T07:23:00;35.70;;;16.70;;
76814;SDS011;65768;49.906;19.384;2023-11-19T07:25:43;38.60;;;18.20;;
76814;SDS011;65768;49.906;19.384;2023-11-19T07:28:19;33.70;;;15.00;;
76814;SDS011;65768;49.906;19.384;2023-11-19T07:30:47;34.70;;;16.50;;
76814;SDS011;65768;49.906;19.384;2023-11-19T07:33:16;38.20;;;15.80;;
76814;SDS011;65768;49.906;19.384;2023-11-19T07:35:45;35.30;;;15.30;;
76814;SDS011;65768;49.906;19.384;2023-11-19T07:38:13;29.10;;;14.60;;
76814;SDS011;65768;49.906;19.384;2023-11-19T07:40:42;28.30;;;14.60;;
76814;SDS011;65768;49.906;19.384;2023-11-19T07:43:12;34.50;;;14.50;;
76814;SDS011;65768;49.906;19.384;2023-11-19T07:45:40;30.40;;;15.80;;
76814;SDS011;65768;49.906;19.384;2023-11-19T07:48:12;32.10;;;15.40;;
76814;SDS011;65768;49.906;19.384;2023-11-19T07:50:41;36.00;;;16.70;;
76814;SDS011;65768;49.906;19.384;2023-11-19T07:53:14;41.30;;;19.30;;
76814;SDS011;65768;49.906;19.384;2023-11-19T07:55:42;43.20;;;20.60;;
76814;SDS011;65768;49.906;19.384;2023-11-19T07:58:12;39.00;;;20.20;;
76814;SDS011;65768;49.906;19.384;2023-11-19T08:00:40;39.70;;;18.90;;
76814;SDS011;65768;49.906;19.384;2023-11-19T08:03:09;38.30;;;18.00;;
76814;SDS011;65768;49.906;19.384;2023-11-19T08:05:39;36.40;;;17.50;;
76814;SDS011;65768;49.906;19.384;2023-11-19T08:08:08;39.10;;;18.30;;
76814;SDS011;65768;49.906;19.384;2023-11-19T08:10:37;38.10;;;18.10;;
76814;SDS011;65768;49.906;19.384;2023-11-19T08:13:06;35.70;;;18.30;;
76814;SDS011;65768;49.906;19.384;2023-11-19T08:15:38;35.90;;;17.20;;
76814;SDS011;65768;49.906;19.384;2023-11-19T08:18:06;34.80;;;17.90;;
76814;SDS011;65768;49.906;19.384;2023-11-19T08:20:35;30.10;;;15.30;;
76814;SDS011;65768;49.906;19.384;2023-11-19T08:23:04;32.70;;;15.30;;
76814;SDS011;65768;49.906;19.384;2023-11-19T08:25:33;33.20;;;15.00;;
76814;SDS011;65768;49.906;19.384;2023-11-19T08:28:02;35.70;;;16.50;;
76814;SDS011;65768;49.906;19.384;2023-11-19T08:30:31;34.60;;;15.10;;
76814;SDS011;65768;49.906;19.384;2023-11-19T08:33:00;33.60;;;15.60;;
76814;SDS011;65768;49.906;19.384;2023-11-19T08:35:30;32.30;;;15.10;;
76814;SDS011;65768;49.906;19.384;2023-11-19T08:37:59;28.50;;;14.70;;
76814;SDS011;65768;49.906;19.384;2023-11-19T08:40:28;24.50;;;11.10;;
76814;SDS011;65768;49.906;19.384;2023-11-19T08:42:59;26.70;;;13.60;;
76814;SDS011;65768;49.906;19.384;2023-11-19T08:45:28;23.00;;;11.90;;
76814;SDS011;65768;49.906;19.384;2023-11-19T08:47:57;22.40;;;10.80;;
76814;SDS011;65768;49.906;19.384;2023-11-19T08:50:25;21.40;;;10.10;;
76814;SDS011;65768;49.906;19.384;2023-11-19T08:52:53;17.80;;;9.00;;
76814;SDS011;65768;49.906;19.384;2023-11-19T08:55:22;9.00;;;5.30;;
76814;SDS011;65768;49.906;19.384;2023-11-19T08:57:51;8.90;;;4.30;;
76814;SDS011;65768;49.906;19.384;2023-11-19T09:00:20;7.30;;;4.40;;
76814;SDS011;65768;49.906;19.384;2023-11-19T09:02:50;7.60;;;4.30;;
76814;SDS011;65768;49.906;19.384;2023-11-19T09:05:18;8.40;;;4.30;;
76814;SDS011;65768;49.906;19.384;2023-11-19T09:07:47;10.50;;;4.50;;
76814;SDS011;65768;49.906;19.384;2023-11-19T09:10:17;7.60;;;3.60;;
76814;SDS011;65768;49.906;19.384;2023-11-19T09:13:14;7.40;;;3.60;;
76814;SDS011;65768;49.906;19.384;2023-11-19T09:15:43;6.30;;;3.20;;
76814;SDS011;65768;49.906;19.384;2023-11-19T09:18:11;7.00;;;3.70;;
76814;SDS011;65768;49.906;19.384;2023-11-19T09:20:40;9.70;;;3.10;;
76814;SDS011;65768;49.906;19.384;2023-11-19T09:23:10;5.70;;;3.70;;
76814;SDS011;65768;49.906;19.384;2023-11-19T09:25:40;6.80;;;2.80;;
76814;SDS011;65768;49.906;19.384;2023-11-19T09:28:09;6.90;;;3.10;;
76814;SDS011;65768;49.906;19.384;2023-11-19T09:30:38;5.50;;;2.80;;
76814;SDS011;65768;49.906;19.384;2023-11-19T09:33:06;5.40;;;2.50;;
76814;SDS011;65768;49.906;19.384;2023-11-19T09:35:34;6.00;;;3.10;;
76814;SDS011;65768;49.906;19.384;2023-11-19T09:38:03;6.20;;;3.20;;
76814;SDS011;65768;49.906;19.384;2023-11-19T09:40:33;5.80;;;3.40;;
76814;SDS011;65768;49.906;19.384;2023-11-19T09:43:02;7.60;;;4.10;;
76814;SDS011;65768;49.906;19.384;2023-11-19T09:45:31;8.40;;;4.00;;
76814;SDS011;65768;49.906;19.384;2023-11-19T09:48:16;7.80;;;4.00;;
76814;SDS011;65768;49.906;19.384;2023-11-19T09:50:47;10.00;;;4.40;;
76814;SDS011;65768;49.906;19.384;2023-11-19T09:53:16;8.90;;;4.80;;
76814;SDS011;65768;49.906;19.384;2023-11-19T09:55:48;8.90;;;4.90;;
76814;SDS011;65768;49.906;19.384;2023-11-19T09:58:17;7.80;;;4.80;;
76814;SDS011;65768;49.906;19.384;2023-11-19T10:00:46;8.80;;;4.70;;
76814;SDS011;65768;49.906;19.384;2023-11-19T10:03:17;7.10;;;3.90;;
76814;SDS011;65768;49.906;19.384;2023-11-19T10:05:46;10.10;;;4.70;;
76814;SDS011;65768;49.906;19.384;2023-11-19T10:08:14;7.90;;;4.00;;
76814;SDS011;65768;49.906;19.384;2023-11-19T10:10:44;9.00;;;4.70;;
76814;SDS011;65768;49.906;19.384;2023-11-19T10:13:12;7.50;;;4.20;;
76814;SDS011;65768;49.906;19.384;2023-11-19T10:15:43;5.80;;;3.20;;
76814;SDS011;65768;49.906;19.384;2023-11-19T10:18:14;6.30;;;3.30;;
76814;SDS011;65768;49.906;19.384;2023-11-19T10:20:42;5.40;;;2.80;;
76814;SDS011;65768;49.906;19.384;2023-11-19T10:23:12;5.70;;;2.90;;
76814;SDS011;65768;49.906;19.384;2023-11-19T10:25:40;5.40;;;2.80;;
76814;SDS011;65768;49.906;19.384;2023-11-19T10:28:09;6.20;;;2.50;;
76814;SDS011;65768;49.906;19.384;2023-11-19T10:30:38;6.80;;;3.60;;
76814;SDS011;65768;49.906;19.384;2023-11-19T10:33:09;7.20;;;2.80;;
76814;SDS011;65768;49.906;19.384;2023-11-19T10:35:51;7.80;;;3.10;;
76814;SDS011;65768;49.906;19.384;2023-11-19T10:38:21;4.80;;;2.20;;
76814;SDS011;65768;49.906;19.384;2023-11-19T10:40:51;5.00;;;3.10;;
76814;SDS011;65768;49.906;19.384;2023-11-19T10:43:22;7.00;;;3.20;;
76814;SDS011;65768;49.906;19.384;2023-11-19T10:45:51;5.40;;;2.70;;
76814;SDS011;65768;49.906;19.384;2023-11-19T10:48:21;5.10;;;2.60;;
76814;SDS011;65768;49.906;19.384;2023-11-19T10:50:54;5.30;;;2.50;;
76814;SDS011;65768;49.906;19.384;2023-11-19T10:53:25;6.40;;;3.20;;
76814;SDS011;65768;49.906;19.384;2023-11-19T10:55:55;6.20;;;2.60;;
76814;SDS011;65768;49.906;19.384;2023-11-19T10:58:26;5.90;;;3.30;;
76814;SDS011;65768;49.906;19.384;2023-11-19T11:00:57;5.40;;;3.10;;
76814;SDS011;65768;49.906;19.384;2023-11-19T11:03:39;6.10;;;3.30;;
76814;SDS011;65768;49.906;19.384;2023-11-19T11:06:09;5.80;;;3.00;;
76814;SDS011;65768;49.906;19.384;2023-11-19T11:08:41;5.40;;;2.90;;
76814;SDS011;65768;49.906;19.384;2023-11-19T11:11:10;6.00;;;2.70;;
76814;SDS011;65768;49.906;19.384;2023-11-19T11:13:49;7.00;;;3.40;;
76814;SDS011;65768;49.906;19.384;2023-11-19T11:16:21;6.80;;;3.70;;
76814;SDS011;65768;49.906;19.384;2023-11-19T11:18:51;6.20;;;2.80;;
76814;SDS011;65768;49.906;19.384;2023-11-19T11:21:21;7.70;;;3.30;;
76814;SDS011;65768;49.906;19.384;2023-11-19T11:32:19;6.30;;;3.30;;
76814;SDS011;65768;49.906;19.384;2023-11-19T11:35:07;4.90;;;2.70;;
76814;SDS011;65768;49.906;19.384;2023-11-19T11:37:49;9.70;;;3.60;;
76814;SDS011;65768;49.906;19.384;2023-11-19T11:40:24;4.80;;;2.80;;
76814;SDS011;65768;49.906;19.384;2023-11-19T11:42:54;6.60;;;2.90;;
76814;SDS011;65768;49.906;19.384;2023-11-19T11:45:34;6.60;;;3.00;;
76814;SDS011;65768;49.906;19.384;2023-11-19T11:48:10;7.30;;;3.40;;
76814;SDS011;65768;49.906;19.384;2023-11-19T11:50:52;5.90;;;3.10;;
76814;SDS011;65768;49.906;19.384;2023-11-19T11:53:23;6.60;;;2.90;;
76814;SDS011;65768;49.906;19.384;2023-11-19T11:55:54;6.70;;;3.50;;
76814;SDS011;65768;49.906;19.384;2023-11-19T11:58:26;7.60;;;4.10;;
76814;SDS011;65768;49.906;19.384;2023-11-19T12:01:00;6.30;;;3.20;;
76814;SDS011;65768;49.906;19.384;2023-11-19T12:03:33;7.40;;;3.50;;
76814;SDS011;65768;49.906;19.384;2023-11-19T12:06:02;6.90;;;3.60;;
76814;SDS011;65768;49.906;19.384;2023-11-19T12:08:31;7.10;;;3.00;;
76814;SDS011;65768;49.906;19.384;2023-11-19T12:11:04;3.80;;;2.20;;
76814;SDS011;65768;49.906;19.384;2023-11-19T12:13:46;6.20;;;3.20;;
76814;SDS011;65768;49.906;19.384;2023-11-19T12:16:27;4.10;;;2.00;;
76814;SDS011;65768;49.906;19.384;2023-11-19T12:18:57;4.00;;;2.30;;
76814;SDS011;65768;49.906;19.384;2023-11-19T12:21:33;3.40;;;2.10;;
76814;SDS011;65768;49.906;19.384;2023-11-19T12:24:06;4.80;;;2.50;;
76814;SDS011;65768;49.906;19.384;2023-11-19T12:26:37;6.80;;;2.80;;
76814;SDS011;65768;49.906;19.384;2023-11-19T12:29:06;5.70;;;3.30;;
76814;SDS011;65768;49.906;19.384;2023-11-19T12:31:36;5.10;;;2.60;;
76814;SDS011;65768;49.906;19.384;2023-11-19T12:34:06;5.50;;;2.60;;
76814;SDS011;65768;49.906;19.384;2023-11-19T12:36:36;4.80;;;2.50;;
76814;SDS011;65768;49.906;19.384;2023-11-19T12:39:04;4.70;;;2.90;;
76814;SDS011;65768;49.906;19.384;2023-11-19T12:41:48;5.40;;;2.70;;
76814;SDS011;65768;49.906;19.384;2023-11-19T12:44:19;5.50;;;2.50;;
76814;SDS011;65768;49.906;19.384;2023-11-19T12:47:02;4.60;;;2.80;;
76814;SDS011;65768;49.906;19.384;2023-11-19T12:49:33;7.70;;;3.60;;
76814;SDS011;65768;49.906;19.384;2023-11-19T12:52:10;6.70;;;3.60;;
76814;SDS011;65768;49.906;19.384;2023-11-19T12:54:40;7.40;;;3.60;;
76814;SDS011;65768;49.906;19.384;2023-11-19T12:57:09;10.30;;;5.00;;
76814;SDS011;65768;49.906;19.384;2023-11-19T12:59:38;10.40;;;4.90;;
76814;SDS011;65768;49.906;19.384;2023-11-19T13:02:06;9.70;;;5.60;;
76814;SDS011;65768;49.906;19.384;2023-11-19T13:04:36;10.70;;;6.10;;
76814;SDS011;65768;49.906;19.384;2023-11-19T13:07:04;12.00;;;7.30;;
76814;SDS011;65768;49.906;19.384;2023-11-19T13:09:34;12.00;;;7.60;;
76814;SDS011;65768;49.906;19.384;2023-11-19T13:12:11;16.50;;;9.70;;
76814;SDS011;65768;49.906;19.384;2023-11-19T13:14:44;18.20;;;9.70;;
76814;SDS011;65768;49.906;19.384;2023-11-19T13:17:15;26.50;;;12.70;;
76814;SDS011;65768;49.906;19.384;2023-11-19T13:19:46;18.80;;;10.50;;
76814;SDS011;65768;49.906;19.384;2023-11-19T13:22:18;23.30;;;12.80;;
76814;SDS011;65768;49.906;19.384;2023-11-19T13:24:46;22.10;;;9.90;;
76814;SDS011;65768;49.906;19.384;2023-11-19T13:27:16;17.60;;;10.70;;
76814;SDS011;65768;49.906;19.384;2023-11-19T13:29:45;23.20;;;11.70;;
76814;SDS011;65768;49.906;19.384;2023-11-19T13:32:14;20.20;;;12.00;;
76814;SDS011;65768;49.906;19.384;2023-11-19T13:34:44;23.00;;;11.80;;
76814;SDS011;65768;49.906;19.384;2023-11-19T13:37:15;15.30;;;8.90;;
76814;SDS011;65768;49.906;19.384;2023-11-19T13:39:44;17.60;;;10.70;;
76814;SDS011;65768;49.906;19.384;2023-11-19T13:42:14;13.90;;;7.60;;
76814;SDS011;65768;49.906;19.384;2023-11-19T13:44:43;12.00;;;6.90;;
76814;SDS011;65768;49.906;19.384;2023-11-19T13:47:11;19.10;;;10.00;;
76814;SDS011;65768;49.906;19.384;2023-11-19T13:49:41;18.20;;;9.40;;
76814;SDS011;65768;49.906;19.384;2023-11-19T13:52:10;27.00;;;12.40;;
76814;SDS011;65768;49.906;19.384;2023-11-19T13:54:40;19.60;;;8.50;;
76814;SDS011;65768;49.906;19.384;2023-11-19T13:57:10;24.30;;;11.20;;
76814;SDS011;65768;49.906;19.384;2023-11-19T13:59:39;29.20;;;12.30;;
76814;SDS011;65768;49.906;19.384;2023-11-19T14:02:10;29.30;;;11.70;;
76814;SDS011;65768;49.906;19.384;2023-11-19T14:04:38;35.00;;;14.20;;
76814;SDS011;65768;49.906;19.384;2023-11-19T14:07:07;34.20;;;14.30;;
76814;SDS011;65768;49.906;19.384;2023-11-19T14:09:35;35.10;;;13.80;;
76814;SDS011;65768;49.906;19.384;2023-11-19T14:12:04;24.20;;;10.30;;
76814;SDS011;65768;49.906;19.384;2023-11-19T14:14:33;24.40;;;9.50;;
76814;SDS011;65768;49.906;19.384;2023-11-19T14:17:01;22.50;;;9.40;;
76814;SDS011;65768;49.906;19.384;2023-11-19T14:19:31;16.60;;;7.70;;
76814;SDS011;65768;49.906;19.384;2023-11-19T14:22:01;13.50;;;6.50;;
76814;SDS011;65768;49.906;19.384;2023-11-19T14:24:31;12.70;;;6.20;;
76814;SDS011;65768;49.906;19.384;2023-11-19T14:27:00;18.30;;;8.40;;
76814;SDS011;65768;49.906;19.384;2023-11-19T14:29:30;21.20;;;8.50;;
76814;SDS011;65768;49.906;19.384;2023-11-19T14:32:00;19.60;;;9.50;;
76814;SDS011;65768;49.906;19.384;2023-11-19T14:34:30;16.50;;;9.20;;
76814;SDS011;65768;49.906;19.384;2023-11-19T14:37:01;16.90;;;9.10;;
76814;SDS011;65768;49.906;19.384;2023-11-19T14:39:30;23.50;;;10.80;;
76814;SDS011;65768;49.906;19.384;2023-11-19T14:42:03;24.00;;;11.70;;
76814;SDS011;65768;49.906;19.384;2023-11-19T14:44:33;22.10;;;11.80;;
76814;SDS011;65768;49.906;19.384;2023-11-19T14:47:02;20.80;;;11.20;;
76814;SDS011;65768;49.906;19.384;2023-11-19T14:49:31;23.30;;;12.20;;
76814;SDS011;65768;49.906;19.384;2023-11-19T14:52:00;25.50;;;12.00;;
76814;SDS011;65768;49.906;19.384;2023-11-19T14:54:29;25.30;;;11.80;;